Palos Verdes Estates, California
Current Conditions -  °F | °C
As of 3:21 AM on Saturday 25 Oct 2014 (Local Time) from KHHR Reporting Station
Broken Clouds Broken Clouds  
Wind Chill: 65°   Ceiling: 600
Heat Index: 65°   Visibility: 10mi
Dew Point: 62°   Wind: 0mph
Humidity: 90%   Direction: NA
Pressure: 29.99"   Gusts: NA
Location:  33.8°N, 118.39°W
Report Text: KHHR 251021Z AUTO 00000KT 10SM BKN006 18/17 A2999 RMK AO2 T01830167
Loading
Personal Weather Stations






























Interactive Weather Map
Tropical Storm Tracking
New forecast layout! Learn more

10-Day Weather Forecast

Advertisements
Track Severe Weather on mobile